KHKA

Details ICAO KHKA
Name BLYTHEVILLE MUNI
Region United States
Timezone America/Chicago (UTC-5.0)
Plans Departing 6
Arriving 3
Stats Elevation 255 ft / 78 m (AMSL)
Location 35.940407° -89.830806°
Runways 1
Magnetic Variation 1.583° W
Sunrise 2018-05-26 10:48:03 UTC / 2018-05-26 05:48:03 Local
Sunset 2018-05-27 01:07:37 UTC / 2018-05-26 20:07:37 Local
Advertisement - Login to hide

Runways

ID Width Length Bearing (true) Bearing (mag) Surface Threshold Offset Overrun Length
18 75 ft / 23 m 5,013 ft / 1,528 m 178.90° 180.48° Asphalt 0 ft / 0 m 0 ft / 0 m
36 75 ft / 23 m 5,013 ft / 1,528 m 358.90° 0.48° Asphalt 0 ft / 0 m 0 ft / 0 m

Map

Weather


0- 5 10 15 20 25 30 35+ Temperature / ° C

Clouds and Precipitation
Forecast for 2018-05-26 18:00 UTC. Updated 3 hours ago

Ground ~20,000 ft ~40,000 ft Winds

METAR

KHKA 262018Z AUTO 18006KT 10SM TS BKN042 BKN055 31/20 A2982 RMK AO2 TSB12 T03060200

TAF

Not found

Frequencies

Recorded 135.02 MHz ASOS
Approach 134.65 MHz MEMPHIS CNTR
Unicom 123.05 MHz CTAF/UNICOM
Warning: Do not use this data for real-world aviation or navigation. No guarantee of current accuracy is given.